D/T METAR WX W/DIR W/SPE G/SPE TEMP DEWP
27/05/19 08:50 EGAA 270750Z 25008KT 9999 FEW016 BKN022 BKN037 11/08 Q1008 WSW (250°) 9.2mph 11°C 8°C
27/05/19 07:50 EGAA 270650Z 25011KT 9999 SCT016 BKN022 BKN029 11/08 Q1008 WSW (250°) 12.7mph 11°C 8°C
27/05/19 07:20 EGAA 270620Z 25012KT 9999 FEW022 SCT028 10/08 Q1008 WSW (250°) 13.8mph 10°C 8°C
27/05/19 06:20 EGAA 270520Z 26010KT 9999 SCT021 10/07 Q1008 W (260°) 11.5mph 10°C 7°C
27/05/19 05:50 EGAA 270450Z 26011KT 9999 FEW020 SCT040 09/06 Q1008 W (260°) 12.7mph 9°C 6°C
27/05/19 05:20 EGAA 270420Z 26011KT 9999 FEW016 10/07 Q1008 W (260°) 12.7mph 10°C 7°C
27/05/19 04:20 EGAA 270320Z AUTO 25009KT 9999 BKN021/// 10/07 Q1008 WSW (250°) 10.4mph 10°C 7°C
27/05/19 03:50 EGAA 270250Z AUTO 26012KT 9999 FEW046/// 10/07 Q1008 W (260°) 13.8mph 10°C 7°C
27/05/19 03:20 EGAA 270220Z AUTO 26015KT 9999 NCD 10/07 Q1008 W (260°) 17.3mph 10°C 7°C
27/05/19 02:50 EGAA 270150Z 25016KT CAVOK 10/07 Q1008 WSW (250°) 18.4mph 10°C 7°C
27/05/19 02:20 EGAA 270120Z 25015KT 9999 BKN047 10/07 Q1008 WSW (250°) 17.3mph 10°C 7°C
27/05/19 01:50 EGAA 270050Z 26016KT CAVOK 10/08 Q1008 W (260°) 18.4mph 10°C 8°C
27/05/19 01:20 EGAA 270020Z 25015KT 9999 BKN021 10/08 Q1008 WSW (250°) 17.3mph 10°C 8°C
27/05/19 00:50 EGAA 262350Z 25014KT CAVOK 10/08 Q1008 WSW (250°) 16.1mph 10°C 8°C
27/05/19 00:20 EGAA 262320Z 25016KT 9999 FEW017 SCT035 11/08 Q1009 WSW (250°) 18.4mph 11°C 8°C
26/05/19 23:50 EGAA 262250Z 25015KT 9999 FEW018 SCT036 BKN044 11/08 Q1009 WSW (250°) 17.3mph 11°C 8°C
26/05/19 23:20 EGAA 262220Z 25017KT 9999 FEW049 11/08 Q1009 WSW (250°) 19.6mph 11°C 8°C
26/05/19 22:50 EGAA 262150Z 25015KT 9999 BKN046 11/07 Q1009 WSW (250°) 17.3mph 11°C 7°C
26/05/19 22:20 EGAA 262120Z 26016KT 9999 FEW033 SCT041 BKN049 12/07 Q1009 W (260°) 18.4mph 12°C 7°C
26/05/19 21:50 EGAA 262050Z 25014KT 9999 FEW024 BKN048 12/08 Q1009 WSW (250°) 16.1mph 12°C 8°C
26/05/19 21:20 EGAA 262020Z 26015KT 9999 FEW035 BKN049 12/08 Q1009 W (260°) 17.3mph 12°C 8°C
26/05/19 20:50 EGAA 261950Z 26018KT 9999 FEW026 BKN049 12/08 Q1009 W (260°) 20.7mph 12°C 8°C
26/05/19 20:20 EGAA 261920Z 25018KT 9999 FEW025 12/08 Q1009 WSW (250°) 20.7mph 12°C 8°C
26/05/19 19:50 EGAA 261850Z 25017KT 9999 SCT036 13/08 Q1010 WSW (250°) 19.6mph 13°C 8°C
26/05/19 19:20 EGAA 261820Z 26017KT 9999 FEW031 SCT036 13/08 Q1010 W (260°) 19.6mph 13°C 8°C
26/05/19 18:20 EGAA 261720Z 26016KT 9999 FEW032 SCT048 14/07 Q1010 W (260°) 18.4mph 14°C 7°C
26/05/19 17:50 EGAA 261650Z 27018KT 9999 SCT044 14/07 Q1010 W (270°) 20.7mph 14°C 7°C
26/05/19 17:20 EGAA 261620Z 27019KT 9999 SCT044 14/07 Q1011 W (270°) 21.9mph 14°C 7°C
26/05/19 16:50 EGAA 261550Z 27018KT 9999 FEW034 BKN047 14/07 Q1010 W (270°) 20.7mph 14°C 7°C
26/05/19 16:20 EGAA 261520Z 27017KT 9999 FEW041 SCT049 15/07 Q1010 W (270°) 19.6mph 15°C 7°C
26/05/19 15:50 EGAA 261450Z 27021KT 9999 FEW030 SCT045 15/08 Q1010 W (270°) 24.2mph 15°C 8°C
26/05/19 15:20 EGAA 261420Z 27016KT 9999 FEW030 BKN036 15/09 Q1010 W (270°) 18.4mph 15°C 9°C
26/05/19 14:50 EGAA 261350Z 26016KT 9999 FEW031 SCT036 BKN049 14/08 Q1010 W (260°) 18.4mph 14°C 8°C
26/05/19 14:20 EGAA 261320Z 28017KT 9999 FEW032 SCT040 BKN047 14/07 Q1011 W (280°) 19.6mph 14°C 7°C
26/05/19 13:50 EGAA 261250Z 27016KT 9999 SCT034 BKN039 14/08 Q1011 W (270°) 18.4mph 14°C 8°C
26/05/19 13:20 EGAA 261220Z 27015KT 9999 SCT022 BKN033 13/09 Q1011 W (270°) 17.3mph 13°C 9°C
26/05/19 12:20 EGAA 261120Z 27013KT 9999 FEW017 BKN022 BKN038 13/10 Q1010 W (270°) 15.0mph 13°C 10°C
26/05/19 11:50 EGAA 261050Z 26016KT 9999 SCT015 BKN020 BKN025 13/10 Q1010 W (260°) 18.4mph 13°C 10°C
26/05/19 11:20 EGAA 261020Z 26015KT 9999 BKN017 BKN023 13/09 Q1010 W (260°) 17.3mph 13°C 9°C
26/05/19 10:50 EGAA 260950Z 26016KT 9999 BKN021 BKN042 13/09 Q1010 W (260°) 18.4mph 13°C 9°C
26/05/19 10:20 EGAA 260920Z 27016KT 9999 BKN019 BKN024 BKN030 12/09 Q1010 W (270°) 18.4mph 12°C 9°C
26/05/19 09:20 EGAA 260820Z 27012KT 9999 FEW017 SCT023 BKN032 13/10 Q1010 W (270°) 13.8mph 13°C 10°C
26/05/19 08:50 EGAA 260750Z 28019KT 9999 FEW012 SCT018 BKN024 13/10 Q1010 W (280°) 21.9mph 13°C 10°C
26/05/19 08:20 EGAA 260720Z 27019KT 9999 FEW007 BKN011 BKN015 13/11 Q1009 W (270°) 21.9mph 13°C 11°C
26/05/19 07:50 EGAA 260650Z 25015KT 9999 SCT006 BKN010 BKN014 13/12 Q1009 WSW (250°) 17.3mph 13°C 12°C
26/05/19 07:20 EGAA 260620Z 25017KT 9000 SCT002 BKN008 BKN039 14/13 Q1008 WSW (250°) 19.6mph 14°C 13°C
26/05/19 06:50 EGAA 260550Z 23017KT 8000 BKN003 BKN016 14/13 Q1008 SW (230°) 19.6mph 14°C 13°C
26/05/19 06:20 EGAA 260520Z 23014KT 9999 BKN005 13/13 Q1008 SW (230°) 16.1mph 13°C 13°C